createdAt,value
2022-12-11T00:00:25.061Z,38.03
2022-12-11T00:02:51.804Z,36.45
2022-12-11T00:05:18.564Z,36.05
2022-12-11T00:07:45.174Z,37.25
2022-12-11T00:10:11.760Z,37.80
2022-12-11T00:12:38.323Z,36.20
2022-12-11T00:15:05.300Z,37.55
2022-12-11T00:17:31.879Z,36.97
2022-12-11T00:19:59.474Z,37.53
2022-12-11T00:22:26.056Z,38.15
2022-12-11T00:24:52.710Z,36.75
2022-12-11T00:27:19.335Z,35.92
2022-12-11T00:29:46.047Z,37.00
2022-12-11T00:32:12.791Z,37.15
2022-12-11T00:34:39.497Z,36.67
2022-12-11T00:37:06.127Z,33.42
2022-12-11T00:39:32.771Z,36.72
2022-12-11T00:41:59.414Z,35.03
2022-12-11T00:44:26.050Z,34.33
2022-12-11T00:46:52.609Z,35.15
2022-12-11T00:49:19.211Z,34.58
2022-12-11T00:51:45.838Z,32.42
2022-12-11T00:54:12.419Z,33.70
2022-12-11T00:56:39.146Z,32.97
2022-12-11T00:59:05.767Z,32.25
2022-12-11T01:01:32.524Z,32.00
2022-12-11T01:03:59.287Z,29.77
2022-12-11T01:06:28.075Z,34.50
2022-12-11T01:09:15.195Z,30.35
2022-12-11T01:11:43.113Z,32.40
2022-12-11T01:14:11.071Z,32.20
2022-12-11T01:16:37.712Z,30.75
2022-12-11T01:19:04.443Z,31.08
2022-12-11T01:21:31.132Z,32.83
2022-12-11T01:23:57.745Z,34.28
2022-12-11T01:26:24.361Z,30.85
2022-12-11T01:28:52.208Z,32.90
2022-12-11T01:31:20.804Z,34.60
2022-12-11T01:33:47.538Z,29.92
2022-12-11T01:36:17.128Z,33.17
2022-12-11T01:38:44.518Z,30.50
2022-12-11T01:41:11.606Z,29.58
2022-12-11T01:43:59.746Z,31.25
2022-12-11T01:46:27.457Z,30.10
2022-12-11T01:48:54.635Z,29.10
2022-12-11T01:51:22.312Z,28.77
2022-12-11T01:54:00.592Z,27.35
2022-12-11T01:56:29.931Z,26.65
2022-12-11T01:59:00.205Z,28.45
2022-12-11T02:01:38.735Z,26.05
2022-12-11T02:04:07.406Z,27.95
2022-12-11T02:06:40.609Z,25.48
2022-12-11T02:09:12.175Z,27.77
2022-12-11T02:11:55.682Z,27.92
2022-12-11T02:14:54.249Z,26.63
2022-12-11T02:17:28.046Z,27.48
2022-12-11T02:20:03.807Z,27.15
2022-12-11T02:23:05.839Z,28.58
2022-12-11T02:25:47.148Z,27.08
2022-12-11T02:28:13.811Z,26.13
2022-12-11T02:30:43.667Z,27.05
2022-12-11T02:33:13.680Z,26.15
2022-12-11T02:35:42.876Z,27.98
2022-12-11T02:38:19.005Z,27.10
2022-12-11T02:40:49.473Z,26.92
2022-12-11T02:43:17.128Z,26.70
2022-12-11T02:45:45.559Z,28.23
2022-12-11T02:48:14.178Z,25.45
2022-12-11T02:50:45.937Z,26.65
2022-12-11T02:53:15.860Z,26.33
2022-12-11T02:55:43.855Z,27.08
2022-12-11T02:58:19.499Z,26.63
2022-12-11T03:00:46.877Z,27.50
2022-12-11T03:03:14.112Z,27.73
2022-12-11T03:05:42.122Z,24.58
2022-12-11T03:08:09.198Z,26.67
2022-12-11T03:10:35.828Z,26.95
2022-12-11T03:13:03.269Z,28.20
2022-12-11T03:15:48.940Z,27.33
2022-12-11T03:18:50.278Z,27.92
2022-12-11T03:21:31.177Z,25.08
2022-12-11T03:24:13.774Z,27.75
2022-12-11T03:26:44.201Z,25.30
2022-12-11T03:29:23.268Z,24.55
2022-12-11T03:32:07.054Z,26.17
2022-12-11T03:37:13.597Z,23.45
2022-12-11T03:39:47.133Z,24.40
2022-12-11T03:44:44.870Z,22.42
2022-12-11T03:47:15.354Z,23.35
2022-12-11T03:49:43.376Z,24.50
2022-12-11T03:52:12.347Z,23.60
2022-12-11T03:54:41.695Z,23.23
2022-12-11T03:57:12.023Z,24.23
2022-12-11T03:59:38.634Z,24.35
2022-12-11T04:02:11.106Z,24.10
2022-12-11T04:04:39.546Z,23.63
2022-12-11T04:07:06.613Z,21.90
2022-12-11T04:09:33.262Z,24.30
2022-12-11T04:11:59.970Z,23.60
2022-12-11T04:14:45.391Z,24.75
2022-12-11T04:17:12.231Z,23.13
2022-12-11T04:19:57.631Z,24.95
2022-12-11T04:22:26.947Z,24.38
2022-12-11T04:24:53.591Z,21.95
2022-12-11T04:27:39.034Z,24.50
2022-12-11T04:30:09.805Z,23.92
2022-12-11T04:32:36.736Z,25.27
2022-12-11T04:35:04.078Z,25.08
2022-12-11T04:37:30.653Z,24.20
2022-12-11T04:39:57.243Z,24.13
2022-12-11T04:42:23.888Z,24.23
2022-12-11T04:44:50.754Z,23.98
2022-12-11T04:47:17.425Z,23.88
2022-12-11T04:49:44.057Z,24.02
2022-12-11T04:52:10.645Z,19.80
2022-12-11T04:54:37.266Z,19.55
2022-12-11T04:57:03.913Z,18.70
2022-12-11T04:59:32.908Z,17.65
2022-12-11T05:01:59.662Z,17.63
2022-12-11T05:04:26.494Z,20.38
2022-12-11T05:06:53.095Z,19.52
2022-12-11T05:09:19.672Z,21.00
2022-12-11T05:11:46.260Z,20.52
2022-12-11T05:14:13.430Z,18.25
2022-12-11T05:16:39.991Z,17.95
2022-12-11T05:19:06.669Z,17.65
2022-12-11T05:21:35.168Z,17.70
2022-12-11T05:24:02.379Z,17.65
2022-12-11T05:26:29.177Z,19.67
2022-12-11T05:28:56.269Z,17.98
2022-12-11T05:31:26.400Z,16.50
2022-12-11T05:33:54.120Z,13.80
2022-12-11T05:36:26.794Z,14.98
2022-12-11T05:38:53.592Z,15.67
2022-12-11T05:41:22.423Z,14.90
2022-12-11T05:43:49.282Z,14.90
2022-12-11T05:46:22.492Z,15.25
2022-12-11T05:48:50.884Z,16.00
2022-12-11T05:51:18.880Z,14.55
2022-12-11T05:53:47.229Z,16.98
2022-12-11T05:56:19.679Z,15.63
2022-12-11T05:58:47.722Z,16.38
2022-12-11T06:01:18.969Z,16.20
2022-12-11T06:03:45.688Z,17.70
2022-12-11T06:06:12.296Z,16.08
2022-12-11T06:08:39.217Z,17.95
2022-12-11T06:11:06.390Z,16.52
2022-12-11T06:13:33.081Z,16.88
2022-12-11T06:16:04.693Z,17.80
2022-12-11T06:18:32.184Z,16.65
2022-12-11T06:20:58.739Z,19.15
2022-12-11T06:23:25.346Z,20.30
2022-12-11T06:25:52.075Z,19.90
2022-12-11T06:28:18.875Z,20.77
2022-12-11T06:30:45.512Z,20.02
2022-12-11T06:33:12.145Z,23.25
2022-12-11T06:35:41.988Z,22.17
2022-12-11T06:38:10.522Z,22.23
2022-12-11T06:40:37.267Z,21.55
2022-12-11T06:43:03.825Z,23.50
2022-12-11T06:45:30.801Z,23.40
2022-12-11T06:47:58.164Z,22.80
2022-12-11T06:50:24.895Z,22.73
2022-12-11T06:52:51.448Z,24.35
2022-12-11T06:55:18.102Z,23.45
2022-12-11T06:57:44.697Z,22.85
2022-12-11T07:00:11.863Z,22.25
2022-12-11T07:02:38.615Z,22.30
2022-12-11T07:05:05.788Z,21.90
2022-12-11T07:07:32.683Z,23.13
2022-12-11T07:10:05.761Z,24.52
2022-12-11T07:12:34.444Z,22.15
2022-12-11T07:15:01.078Z,24.17
2022-12-11T07:17:29.256Z,22.52
2022-12-11T07:19:56.055Z,22.67
2022-12-11T07:22:22.679Z,23.30
2022-12-11T07:24:49.388Z,23.05
2022-12-11T07:27:16.275Z,22.77
2022-12-11T07:29:42.920Z,22.15
2022-12-11T07:32:09.614Z,23.42
2022-12-11T07:34:36.442Z,22.80
2022-12-11T07:37:03.142Z,23.52
2022-12-11T07:39:29.733Z,24.13
2022-12-11T07:41:56.403Z,23.20
2022-12-11T07:44:23.300Z,23.83
2022-12-11T07:46:49.882Z,23.50
2022-12-11T07:49:16.674Z,23.02
2022-12-11T07:51:43.539Z,24.02
2022-12-11T07:54:16.479Z,24.50
2022-12-11T07:56:45.619Z,22.20
2022-12-11T07:59:15.633Z,24.02
2022-12-11T08:01:43.119Z,23.55
2022-12-11T08:04:11.614Z,23.75
2022-12-11T08:06:39.964Z,24.10
2022-12-11T08:09:09.535Z,23.80
2022-12-11T08:11:36.447Z,24.40
2022-12-11T08:14:03.616Z,24.60
2022-12-11T08:16:30.277Z,23.40
2022-12-11T08:18:57.863Z,24.05
2022-12-11T08:21:26.023Z,23.95
2022-12-11T08:23:54.372Z,23.80
2022-12-11T08:26:23.641Z,22.83
2022-12-11T08:28:50.344Z,22.60
2022-12-11T08:31:18.072Z,21.88
2022-12-11T08:33:45.010Z,22.05
2022-12-11T08:36:15.013Z,21.65
2022-12-11T08:38:42.365Z,21.95
2022-12-11T08:41:09.830Z,23.30
2022-12-11T08:43:36.704Z,21.83
2022-12-11T08:46:03.641Z,21.65
2022-12-11T08:48:30.463Z,19.70
2022-12-11T08:51:01.432Z,18.75
2022-12-11T08:53:32.111Z,17.88
2022-12-11T08:56:09.890Z,20.83
2022-12-11T08:58:37.097Z,19.65
2022-12-11T09:01:09.150Z,17.33
2022-12-11T09:03:36.949Z,18.85
2022-12-11T09:06:12.480Z,18.33
2022-12-11T09:08:39.327Z,18.75
2022-12-11T09:11:08.782Z,19.02
2022-12-11T09:13:36.278Z,17.52
2022-12-11T09:16:09.353Z,18.13
2022-12-11T09:18:37.431Z,18.63
2022-12-11T09:21:09.960Z,17.83
2022-12-11T09:23:37.449Z,16.35
2022-12-11T09:26:06.052Z,16.98
2022-12-11T09:28:32.867Z,17.30
2022-12-11T09:30:59.706Z,15.70
2022-12-11T09:33:26.335Z,16.60
2022-12-11T09:36:00.298Z,15.88
2022-12-11T09:38:27.094Z,15.85
2022-12-11T09:40:53.990Z,16.90
2022-12-11T09:43:46.126Z,16.20
2022-12-11T09:46:17.348Z,14.88
2022-12-11T09:48:47.825Z,15.32
2022-12-11T09:51:43.701Z,14.13
2022-12-11T09:54:13.280Z,14.90
2022-12-11T09:56:45.635Z,14.70
2022-12-11T09:59:24.189Z,14.38
2022-12-11T10:02:12.490Z,15.00
2022-12-11T10:05:06.110Z,12.88
2022-12-11T10:07:51.627Z,11.50
2022-12-11T10:10:24.394Z,12.63
2022-12-11T10:13:01.922Z,13.93
2022-12-11T10:15:52.500Z,14.02
2022-12-11T10:18:22.994Z,15.10
2022-12-11T10:20:52.874Z,15.38
2022-12-11T10:23:35.318Z,15.18
2022-12-11T10:26:18.113Z,16.00
2022-12-11T10:28:45.006Z,15.88
2022-12-11T10:31:19.244Z,16.30
2022-12-11T10:34:03.956Z,16.27
2022-12-11T10:36:34.712Z,14.25
2022-12-11T10:39:02.331Z,14.48
2022-12-11T10:41:41.752Z,14.35
2022-12-11T10:44:30.200Z,13.13
2022-12-11T10:47:13.685Z,12.50
2022-12-11T10:49:51.792Z,14.10
2022-12-11T10:52:23.973Z,13.65
2022-12-11T10:55:03.520Z,14.65
2022-12-11T10:57:35.812Z,15.65
2022-12-11T11:00:06.024Z,15.25
2022-12-11T11:02:36.714Z,11.95
2022-12-11T11:05:30.124Z,12.55
2022-12-11T11:08:03.602Z,10.77
2022-12-11T11:10:30.424Z,12.77
2022-12-11T11:13:01.610Z,13.15
2022-12-11T11:15:31.532Z,12.88
2022-12-11T11:18:09.674Z,12.38
2022-12-11T11:20:36.343Z,13.45
2022-12-11T11:23:14.115Z,12.90
2022-12-11T11:25:52.112Z,13.60
2022-12-11T11:28:31.443Z,12.80
2022-12-11T11:31:05.315Z,13.77
2022-12-11T11:33:34.404Z,12.52
2022-12-11T11:36:06.537Z,12.65
2022-12-11T11:38:38.614Z,13.60
2022-12-11T11:41:23.814Z,14.27
2022-12-11T11:43:57.693Z,11.40
2022-12-11T11:46:26.665Z,13.35
2022-12-11T11:49:14.182Z,10.02
2022-12-11T11:51:46.370Z,11.80
2022-12-11T11:54:27.859Z,11.20
2022-12-11T11:56:57.037Z,10.45
2022-12-11T11:59:29.813Z,12.25
2022-12-11T12:01:57.750Z,10.07
2022-12-11T12:04:28.030Z,10.60
2022-12-11T12:07:08.356Z,10.48
2022-12-11T12:10:04.130Z,9.93
2022-12-11T12:12:34.353Z,11.32
2022-12-11T12:15:22.807Z,11.98
2022-12-11T12:18:00.647Z,10.50
2022-12-11T12:20:35.744Z,10.93
2022-12-11T12:23:33.329Z,10.07
2022-12-11T12:26:23.939Z,9.73
2022-12-11T12:29:12.309Z,8.45
2022-12-11T12:31:57.892Z,7.38
2022-12-11T12:34:48.719Z,8.45
2022-12-11T12:37:43.684Z,7.90
2022-12-11T12:40:33.692Z,6.95
2022-12-11T12:43:19.479Z,6.95
2022-12-11T12:45:59.074Z,8.18
2022-12-11T12:48:27.219Z,8.45
2022-12-11T12:50:54.240Z,9.75
2022-12-11T12:53:28.320Z,9.13
2022-12-11T12:55:55.469Z,10.93
2022-12-11T12:58:39.812Z,10.32
2022-12-11T13:01:16.786Z,10.32
2022-12-11T13:03:55.729Z,10.93
2022-12-11T13:06:38.434Z,11.05
2022-12-11T13:09:26.159Z,10.23
2022-12-11T13:11:57.592Z,9.93
2022-12-11T13:14:31.582Z,9.82
2022-12-11T13:17:23.091Z,10.52
2022-12-11T13:19:57.452Z,10.73
2022-12-11T13:22:24.634Z,10.55
2022-12-11T13:25:04.101Z,8.30
2022-12-11T13:27:39.926Z,9.00
2022-12-11T13:30:20.802Z,17.08
2022-12-11T13:33:08.058Z,11.35
2022-12-11T13:35:35.372Z,9.40
2022-12-11T13:38:06.558Z,10.23
2022-12-11T13:40:43.041Z,8.27
2022-12-11T13:43:26.813Z,9.13
2022-12-11T13:46:00.540Z,8.15
2022-12-11T13:48:31.973Z,8.38
2022-12-11T13:51:00.166Z,8.18
2022-12-11T13:53:26.917Z,8.32
2022-12-11T13:56:02.835Z,8.38
2022-12-11T13:58:33.887Z,7.05
2022-12-11T14:01:25.272Z,7.70
2022-12-11T14:04:13.964Z,7.65
2022-12-11T14:06:40.904Z,7.57
2022-12-11T14:09:09.123Z,7.78
2022-12-11T14:11:42.515Z,8.05
2022-12-11T14:14:22.136Z,8.52
2022-12-11T14:16:50.458Z,8.68
2022-12-11T14:19:20.433Z,8.75
2022-12-11T14:22:07.943Z,9.43
2022-12-11T14:24:34.535Z,7.78
2022-12-11T14:27:01.320Z,9.68
2022-12-11T14:29:33.071Z,10.27
2022-12-11T14:32:03.872Z,9.32
2022-12-11T14:34:35.684Z,9.95
2022-12-11T14:37:05.103Z,9.48
2022-12-11T14:39:39.479Z,8.60
2022-12-11T14:42:09.175Z,8.80
2022-12-11T14:44:53.282Z,11.00
2022-12-11T14:47:27.322Z,10.55
2022-12-11T14:49:58.678Z,10.48
2022-12-11T14:52:38.539Z,11.00
2022-12-11T14:55:10.538Z,10.68
2022-12-11T14:57:41.317Z,11.02
2022-12-11T15:00:08.934Z,11.98
2022-12-11T15:02:36.910Z,11.00
2022-12-11T15:05:19.485Z,11.18
2022-12-11T15:07:58.017Z,12.60
2022-12-11T15:10:36.073Z,11.93
2022-12-11T15:13:05.583Z,12.25
2022-12-11T15:15:42.990Z,12.07
2022-12-11T15:18:23.549Z,13.32
2022-12-11T15:20:53.127Z,12.80
2022-12-11T15:23:20.265Z,13.13
2022-12-11T15:25:54.824Z,13.32
2022-12-11T15:28:36.583Z,14.07
2022-12-11T15:31:23.893Z,13.43
2022-12-11T15:33:50.550Z,12.80
2022-12-11T15:36:35.450Z,13.23
2022-12-11T15:39:05.478Z,13.48
2022-12-11T15:41:34.603Z,13.07
2022-12-11T15:44:03.845Z,12.90
2022-12-11T15:46:36.308Z,13.80
2022-12-11T15:49:10.864Z,14.38
2022-12-11T15:51:42.660Z,13.65
2022-12-11T15:54:10.002Z,14.73
2022-12-11T15:56:36.604Z,14.80
2022-12-11T15:59:04.929Z,15.70
2022-12-11T16:01:31.564Z,15.05
2022-12-11T16:04:03.238Z,14.10
2022-12-11T16:06:31.420Z,15.20
2022-12-11T16:08:57.997Z,14.65
2022-12-11T16:11:24.623Z,15.25
2022-12-11T16:13:56.881Z,15.00
2022-12-11T16:16:23.934Z,15.55
2022-12-11T16:18:51.343Z,16.15
2022-12-11T16:21:21.443Z,16.73
2022-12-11T16:23:48.424Z,16.58
2022-12-11T16:26:15.743Z,14.85
2022-12-11T16:28:43.132Z,16.88
2022-12-11T16:31:11.747Z,14.73
2022-12-11T16:33:38.813Z,17.27
2022-12-11T16:36:16.529Z,17.50
2022-12-11T16:38:53.472Z,16.58
2022-12-11T16:41:20.844Z,17.30
2022-12-11T16:43:47.465Z,18.70
2022-12-11T16:46:18.302Z,17.80
2022-12-11T16:48:45.486Z,19.15
2022-12-11T16:51:12.070Z,20.35
2022-12-11T16:53:38.713Z,22.63
2022-12-11T16:56:06.388Z,18.20
2022-12-11T16:58:33.025Z,21.42
2022-12-11T17:01:02.521Z,18.05
2022-12-11T17:03:30.577Z,17.65
2022-12-11T17:05:57.954Z,17.25
2022-12-11T17:08:26.045Z,20.65
2022-12-11T17:10:53.179Z,21.13
2022-12-11T17:13:19.847Z,18.67
2022-12-11T17:15:46.558Z,18.27
2022-12-11T17:18:13.381Z,20.60
2022-12-11T17:20:41.753Z,19.40
2022-12-11T17:23:10.549Z,19.20
2022-12-11T17:25:41.418Z,18.98
2022-12-11T17:28:08.482Z,18.55
2022-12-11T17:30:38.906Z,14.23
2022-12-11T17:33:05.495Z,17.88
2022-12-11T17:35:32.967Z,19.52
2022-12-11T17:37:59.723Z,20.33
2022-12-11T17:40:26.605Z,18.55
2022-12-11T17:42:53.193Z,17.50
2022-12-11T17:45:19.824Z,17.65
2022-12-11T17:47:46.437Z,17.80
2022-12-11T17:50:13.222Z,17.70
2022-12-11T17:52:44.138Z,17.50
2022-12-11T17:55:11.545Z,16.88
2022-12-11T17:57:38.480Z,18.02
2022-12-11T18:00:06.826Z,18.63
2022-12-11T18:02:34.287Z,18.90
2022-12-11T18:05:01.183Z,18.23
2022-12-11T18:07:27.785Z,18.90
2022-12-11T18:09:54.533Z,18.02
2022-12-11T18:12:21.188Z,17.52
2022-12-11T18:14:47.847Z,19.17
2022-12-11T18:17:14.458Z,18.70
2022-12-11T18:19:45.873Z,18.30
2022-12-11T18:22:12.867Z,17.63
2022-12-11T18:24:39.482Z,88.18
2022-12-11T18:27:10.163Z,91.65
2022-12-11T18:29:37.229Z,29.70
2022-12-11T18:32:04.123Z,20.08
2022-12-11T18:34:30.784Z,20.77
2022-12-11T18:36:57.377Z,18.55
2022-12-11T18:39:24.130Z,18.45
2022-12-11T18:42:16.522Z,18.40
2022-12-11T18:44:37.628Z,16.48
2022-12-11T18:47:04.500Z,17.77
2022-12-11T18:49:31.229Z,15.43
2022-12-11T18:51:57.811Z,16.70
2022-12-11T18:54:24.440Z,14.77
2022-12-11T18:56:51.082Z,14.63
2022-12-11T18:59:18.539Z,15.80
2022-12-11T19:01:45.713Z,15.82
2022-12-11T19:04:12.454Z,15.68
2022-12-11T19:06:39.142Z,16.55
2022-12-11T19:09:08.218Z,15.10
2022-12-11T19:11:38.109Z,14.98
2022-12-11T19:14:05.827Z,14.00
2022-12-11T19:16:38.242Z,16.02
2022-12-11T19:19:09.844Z,14.20
2022-12-11T19:21:37.688Z,15.93
2022-12-11T19:24:06.137Z,16.38
2022-12-11T19:26:33.254Z,15.48
2022-12-11T19:29:00.311Z,15.43
2022-12-11T19:31:29.335Z,17.10
2022-12-11T19:33:56.656Z,15.80
2022-12-11T19:36:25.694Z,16.15
2022-12-11T19:38:56.487Z,17.60
2022-12-11T19:41:28.565Z,16.30
2022-12-11T19:43:56.729Z,17.02
2022-12-11T19:46:26.072Z,14.45
2022-12-11T19:48:54.082Z,15.45
2022-12-11T19:51:23.529Z,15.80
2022-12-11T19:53:50.640Z,14.45
2022-12-11T19:56:19.491Z,17.10
2022-12-11T19:58:46.615Z,15.00
2022-12-11T20:01:29.493Z,16.50
2022-12-11T20:03:59.505Z,13.90
2022-12-11T20:06:28.840Z,17.90
2022-12-11T20:08:55.480Z,17.58
2022-12-11T20:11:23.400Z,16.77
2022-12-11T20:13:50.520Z,16.83
2022-12-11T20:16:28.816Z,17.60
2022-12-11T20:19:05.700Z,18.15
2022-12-11T20:21:32.329Z,17.88
2022-12-11T20:23:59.210Z,16.85
2022-12-11T20:26:26.020Z,16.98
2022-12-11T20:28:53.390Z,18.42
2022-12-11T20:31:23.645Z,19.67
2022-12-11T20:33:51.349Z,19.95
2022-12-11T20:36:20.342Z,19.55
2022-12-11T20:38:47.272Z,19.70
2022-12-11T20:41:16.038Z,19.63
2022-12-11T20:43:43.322Z,19.98
2022-12-11T20:46:11.716Z,18.90
2022-12-11T20:48:39.360Z,19.77
2022-12-11T20:51:09.390Z,19.17
2022-12-11T20:53:37.460Z,19.30
2022-12-11T20:56:12.747Z,18.38
2022-12-11T20:58:40.002Z,18.10
2022-12-11T21:01:06.830Z,18.45
2022-12-11T21:03:40.446Z,17.50
2022-12-11T21:06:38.690Z,19.77
2022-12-11T21:09:13.875Z,19.20
2022-12-11T21:11:40.571Z,19.35
2022-12-11T21:14:07.267Z,19.17
2022-12-11T21:16:36.289Z,18.95
2022-12-11T21:19:04.034Z,18.65
2022-12-11T21:21:36.668Z,18.67
2022-12-11T21:24:04.261Z,18.53
2022-12-11T21:26:30.928Z,18.17
2022-12-11T21:28:57.633Z,20.17
2022-12-11T21:31:24.818Z,19.02
2022-12-11T21:33:51.489Z,18.70
2022-12-11T21:36:18.187Z,19.20
2022-12-11T21:38:45.922Z,19.90
2022-12-11T21:41:14.159Z,18.40
2022-12-11T21:44:00.484Z,19.70
2022-12-11T21:46:29.741Z,17.50
2022-12-11T21:48:56.408Z,19.88
2022-12-11T21:51:29.663Z,18.70
2022-12-11T21:53:59.713Z,19.33
2022-12-11T21:56:28.114Z,20.60
2022-12-11T21:58:55.390Z,18.80
2022-12-11T22:01:30.627Z,19.35
2022-12-11T22:03:58.187Z,20.48
2022-12-11T22:06:24.873Z,19.50
2022-12-11T22:08:51.557Z,19.08
2022-12-11T22:11:24.505Z,17.92
2022-12-11T22:13:51.333Z,15.05
2022-12-11T22:16:18.522Z,18.70
2022-12-11T22:18:45.800Z,20.15
2022-12-11T22:21:12.921Z,18.80
2022-12-11T22:23:40.627Z,18.58
2022-12-11T22:26:08.476Z,19.63
2022-12-11T22:28:35.579Z,18.40
2022-12-11T22:31:02.309Z,18.63
2022-12-11T22:33:28.976Z,18.65
2022-12-11T22:35:57.063Z,18.15
2022-12-11T22:38:24.863Z,17.65
2022-12-11T22:40:52.327Z,18.40
2022-12-11T22:43:19.302Z,18.98
2022-12-11T22:45:46.037Z,19.20
2022-12-11T22:48:13.129Z,18.17
2022-12-11T22:50:40.137Z,18.67
2022-12-11T22:53:06.923Z,18.17
2022-12-11T22:55:34.053Z,18.25
2022-12-11T22:58:00.728Z,18.70
2022-12-11T23:00:27.386Z,16.50
2022-12-11T23:02:54.157Z,17.83
2022-12-11T23:05:20.905Z,17.35
2022-12-11T23:07:47.651Z,17.05
2022-12-11T23:10:14.399Z,19.15
2022-12-11T23:12:41.140Z,17.70
2022-12-11T23:15:08.239Z,17.45
2022-12-11T23:17:34.946Z,18.17
2022-12-11T23:20:03.786Z,15.98
2022-12-11T23:22:30.688Z,17.20
2022-12-11T23:24:57.445Z,16.48
2022-12-11T23:27:24.288Z,16.98
2022-12-11T23:29:51.032Z,16.65
2022-12-11T23:32:17.647Z,16.45
2022-12-11T23:34:44.285Z,16.80
2022-12-11T23:37:10.909Z,16.70
2022-12-11T23:39:37.531Z,16.90
2022-12-11T23:42:04.252Z,16.38
2022-12-11T23:44:30.860Z,16.33
2022-12-11T23:46:57.502Z,15.75
2022-12-11T23:49:24.166Z,15.93
2022-12-11T23:51:50.768Z,16.15
2022-12-11T23:54:17.376Z,16.17
2022-12-11T23:56:44.002Z,16.65
2022-12-11T23:59:14.670Z,16.48
